Time;durP1;ratioP1;P1;durP2;ratioP2;P2;SDS_P1;SDS_P2;PMS_P1;PMS_P2;Temp;Humidity;BMP_temperature;BMP_pressure;BME280_temperature;BME280_humidity;BME280_pressure;Samples;Min_cycle;Max_cycle;Signal;HPM_P1;HPM_P2
2023/04/09 00:01:05;;;;;;;51.42;27.85;;;;;;;7.47;100.00;102674.81;5046539;28;20371;-65
2023/04/09 00:03:30;;;;;;;51.45;29.23;;;;;;;7.42;100.00;102676.50;5046732;28;20174;-63
2023/04/09 00:05:55;;;;;;;52.92;30.80;;;;;;;7.42;100.00;102674.75;5045936;28;20722;-67
2023/04/09 00:08:22;;;;;;;46.83;27.80;;;;;;;7.46;100.00;102675.66;5046745;28;20543;-65
2023/04/09 00:10:48;;;;;;;50.00;28.95;;;;;;;7.44;100.00;102674.78;5046018;28;20064;-66
2023/04/09 00:13:14;;;;;;;57.72;30.88;;;;;;;7.40;100.00;102667.72;5046269;28;20472;-64
2023/04/09 00:15:39;;;;;;;56.92;30.35;;;;;;;7.38;100.00;102670.38;5046354;28;20040;-66
2023/04/09 00:18:05;;;;;;;59.55;30.27;;;;;;;7.42;100.00;102663.38;5046941;28;20033;-66
2023/04/09 00:20:30;;;;;;;52.38;30.05;;;;;;;7.42;100.00;102666.00;5046786;28;20025;-64
2023/04/09 00:22:57;;;;;;;54.70;29.20;;;;;;;7.39;100.00;102669.50;5046863;28;20059;-64
2023/04/09 00:25:22;;;;;;;60.03;31.80;;;;;;;7.37;100.00;102665.97;5044714;28;20060;-64
2023/04/09 00:27:47;;;;;;;65.25;33.17;;;;;;;7.39;100.00;102665.97;5028905;28;20069;-64
2023/04/09 00:30:13;;;;;;;60.00;33.25;;;;;;;7.41;100.00;102664.25;5046729;28;20032;-66
2023/04/09 00:32:38;;;;;;;63.83;31.73;;;;;;;7.41;100.00;102664.25;5046763;28;20021;-62
2023/04/09 00:35:04;;;;;;;61.67;32.47;;;;;;;7.39;100.00;102660.72;5046730;28;20021;-64
2023/04/09 00:37:29;;;;;;;59.40;31.73;;;;;;;7.37;100.00;102662.47;5045137;28;20029;-67
2023/04/09 00:39:55;;;;;;;59.95;31.02;;;;;;;7.39;100.00;102661.63;5027755;28;20040;-66
2023/04/09 00:42:20;;;;;;;64.15;33.13;;;;;;;7.35;100.00;102659.84;5027215;28;20029;-64
2023/04/09 00:44:45;;;;;;;62.60;31.83;;;;;;;7.35;100.00;102658.94;5028952;28;20025;-65
2023/04/09 00:47:11;;;;;;;62.22;33.60;;;;;;;7.38;100.00;102661.59;5046195;28;20022;-64
2023/04/09 00:49:36;;;;;;;61.72;32.67;;;;;;;7.34;100.00;102655.44;5046457;28;20120;-62
2023/04/09 00:52:02;;;;;;;60.10;32.58;;;;;;;7.33;100.00;102651.97;5045458;28;20560;-64
2023/04/09 00:54:27;;;;;;;64.85;32.97;;;;;;;7.28;100.00;102647.50;5046672;28;20128;-65
2023/04/09 00:56:54;;;;;;;63.22;32.97;;;;;;;7.28;100.00;102653.66;5028720;28;20122;-65
2023/04/09 00:59:20;;;;;;;64.15;32.75;;;;;;;7.26;100.00;102644.00;5045958;28;20033;-66
2023/04/09 01:01:45;;;;;;;59.28;32.95;;;;;;;7.23;100.00;102650.13;5046244;28;20047;-65
2023/04/09 01:04:11;;;;;;;68.07;33.08;;;;;;;7.26;100.00;102647.53;5045208;28;20114;-66
2023/04/09 01:06:50;;;;;;;60.47;30.85;;;;;;;7.26;100.00;102646.63;5046297;28;20052;-64
2023/04/09 01:09:35;;;;;;;61.28;31.88;;;;;;;7.24;100.00;102640.47;5048929;28;20024;-65
2023/04/09 01:12:11;;;;;;;56.22;31.10;;;;;;;7.19;100.00;102648.31;5031926;28;20448;-64
2023/04/09 01:14:38;;;;;;;55.00;31.67;;;;;;;7.18;100.00;102641.31;5031444;28;20067;-65
2023/04/09 01:17:15;;;;;;;64.57;31.80;;;;;;;7.17;100.00;102644.81;5031455;28;20200;-64
2023/04/09 01:19:52;;;;;;;59.65;31.65;;;;;;;7.16;100.00;102643.91;5049555;28;20371;-65
2023/04/09 01:22:52;;;;;;;63.75;33.30;;;;;;;7.17;100.00;102636.94;5031274;28;20430;-65
2023/04/09 01:25:40;;;;;;;60.65;32.20;;;;;;;7.15;100.00;102638.66;5040440;28;20029;-66
2023/04/09 01:28:15;;;;;;;67.38;33.63;;;;;;;7.17;100.00;102643.03;5048719;28;20059;-66
2023/04/09 01:30:42;;;;;;;65.25;33.67;;;;;;;7.15;100.00;102641.28;5048551;28;20032;-65
2023/04/09 01:33:08;;;;;;;68.75;34.03;;;;;;;7.11;100.00;102644.75;5047738;28;20391;-64
2023/04/09 01:35:33;;;;;;;62.58;33.40;;;;;;;7.14;100.00;102647.41;5049610;28;20032;-64
2023/04/09 01:37:59;;;;;;;67.53;33.55;;;;;;;7.13;100.00;102643.88;5031528;28;20044;-63
2023/04/09 01:40:25;;;;;;;63.80;33.95;;;;;;;7.16;100.00;102643.91;5030483;28;20029;-65
2023/04/09 01:42:51;;;;;;;63.08;32.53;;;;;;;7.15;100.00;102646.53;5013732;28;20040;-61
2023/04/09 01:45:17;;;;;;;63.05;32.78;;;;;;;7.14;100.00;102640.44;5049077;28;20033;-65
2023/04/09 01:47:43;;;;;;;66.57;33.72;;;;;;;7.18;100.00;102651.81;5030974;28;20544;-62
2023/04/09 01:50:08;;;;;;;67.40;34.58;;;;;;;7.23;100.00;102650.13;5048796;28;20029;-63
2023/04/09 01:52:34;;;;;;;72.13;35.35;;;;;;;7.25;100.00;102651.00;5030130;28;20040;-65
2023/04/09 01:54:59;;;;;;;73.63;35.28;;;;;;;7.27;100.00;102645.75;5048670;28;20044;-63
2023/04/09 01:57:25;;;;;;;70.40;34.38;;;;;;;7.36;100.00;102645.84;5048001;28;20029;-63
2023/04/09 01:59:50;;;;;;;78.32;37.65;;;;;;;7.42;100.00;102647.66;5013181;28;20549;-66
2023/04/09 02:02:27;;;;;;;74.10;36.35;;;;;;;7.49;100.00;102644.19;5031020;28;20108;-64
2023/04/09 02:04:55;;;;;;;74.15;36.67;;;;;;;7.57;100.00;102649.50;5030621;28;20167;-63
2023/04/09 02:07:37;;;;;;;77.10;37.95;;;;;;;7.62;100.00;102646.94;5029421;28;20037;-64
2023/04/09 02:10:04;;;;;;;71.25;35.80;;;;;;;7.68;100.00;102639.13;5047927;28;20084;-64
2023/04/09 02:12:30;;;;;;;76.00;36.60;;;;;;;7.72;100.00;102648.75;5028879;28;20120;-63
2023/04/09 02:14:56;;;;;;;70.93;36.40;;;;;;;7.79;100.00;102647.03;5031723;28;20495;-64
2023/04/09 02:17:21;;;;;;;72.32;35.70;;;;;;;7.83;100.00;102643.59;5030290;28;20021;-64
2023/04/09 02:19:47;;;;;;;72.82;35.90;;;;;;;7.84;100.00;102637.47;5045738;28;20048;-63
2023/04/09 02:22:13;;;;;;;76.68;36.25;;;;;;;7.91;100.00;102646.25;5048292;28;20086;-64
2023/04/09 02:24:39;;;;;;;73.35;36.63;;;;;;;8.04;100.00;102634.94;5047292;28;20472;-63
2023/04/09 02:27:05;;;;;;;76.55;36.13;;;;;;;8.18;100.00;102635.03;5046314;28;20036;-61
2023/04/09 02:29:31;;;;;;;72.88;36.45;;;;;;;8.25;100.00;102633.31;5048509;28;20048;-60
2023/04/09 02:31:56;;;;;;;75.93;37.40;;;;;;;8.27;100.00;102634.19;5048273;28;20048;-63
2023/04/09 02:34:22;;;;;;;78.25;35.95;;;;;;;8.32;100.00;102621.97;5046273;28;20055;-64
2023/04/09 02:36:47;;;;;;;76.60;34.83;;;;;;;8.39;100.00;102624.59;5030627;28;20029;-63
2023/04/09 02:39:13;;;;;;;75.35;37.03;;;;;;;8.51;100.00;102622.03;5046854;28;20075;-66
2023/04/09 02:41:38;;;;;;;76.60;38.15;;;;;;;8.52;100.00;102615.03;5042092;28;20026;-64
2023/04/09 02:44:03;;;;;;;78.75;36.53;;;;;;;8.59;100.00;102616.84;5047650;28;20053;-63
2023/04/09 02:46:29;;;;;;;79.10;37.38;;;;;;;8.70;100.00;102614.25;5047842;28;20070;-64
2023/04/09 02:48:54;;;;;;;76.47;37.80;;;;;;;8.75;100.00;102612.50;5043757;28;20162;-58
2023/04/09 02:51:19;;;;;;;72.53;35.17;;;;;;;8.84;100.00;102607.28;5048225;28;20368;-64
2023/04/09 02:53:45;;;;;;;75.53;36.28;;;;;;;8.91;100.00;102602.88;5028422;28;20468;-65
2023/04/09 02:56:10;;;;;;;71.20;36.08;;;;;;;8.97;100.00;102602.00;5029135;28;20029;-67
2023/04/09 02:58:36;;;;;;;72.47;35.67;;;;;;;9.00;100.00;102607.28;5048126;28;20079;-63
2023/04/09 03:01:01;;;;;;;71.75;37.22;;;;;;;9.08;100.00;102610.81;5047721;28;20025;-63
2023/04/09 03:03:27;;;;;;;63.72;34.10;;;;;;;9.12;100.00;102595.03;5048569;28;20118;-64
2023/04/09 03:05:52;;;;;;;64.57;33.38;;;;;;;9.06;100.00;102601.19;5048203;28;20463;-64
2023/04/09 03:08:18;;;;;;;64.63;33.80;;;;;;;9.08;100.00;102600.28;5045250;28;20131;-64
2023/04/09 03:10:44;;;;;;;57.30;32.83;;;;;;;9.04;100.00;102598.53;5047149;28;20045;-65
2023/04/09 03:13:09;;;;;;;62.58;31.80;;;;;;;9.20;100.00;102599.41;5046684;28;20037;-64
2023/04/09 03:15:34;;;;;;;55.13;30.52;;;;;;;9.23;100.00;102596.78;5045192;28;20544;-63
2023/04/09 03:18:00;;;;;;;48.83;30.05;;;;;;;9.27;100.00;102600.28;5047660;28;20475;-63
2023/04/09 03:20:25;;;;;;;48.55;29.35;;;;;;;9.31;100.00;102603.81;5047043;28;20117;-64
2023/04/09 03:22:51;;;;;;;46.63;29.58;;;;;;;9.40;100.00;102601.19;5044923;28;20091;-63
2023/04/09 03:25:18;;;;;;;51.45;29.92;;;;;;;9.46;100.00;102601.16;5046422;28;20029;-63
2023/04/09 03:27:43;;;;;;;48.08;30.23;;;;;;;9.49;100.00;102595.03;5046879;28;20079;-63
2023/04/09 03:30:09;;;;;;;50.72;29.38;;;;;;;9.47;100.00;102594.16;5044598;28;20021;-63
2023/04/09 03:32:35;;;;;;;43.05;27.70;;;;;;;9.51;100.00;102588.00;5046352;28;20020;-61
2023/04/09 03:35:00;;;;;;;44.63;27.08;;;;;;;9.55;100.00;102587.13;5046668;28;20621;-61
2023/04/09 03:37:25;;;;;;;42.15;26.30;;;;;;;9.54;100.00;102582.72;5045156;28;20422;-61
2023/04/09 03:39:51;;;;;;;41.17;27.13;;;;;;;9.60;100.00;102577.47;5046339;28;20028;-63
2023/04/09 03:42:16;;;;;;;38.38;25.20;;;;;;;9.60;100.00;102574.81;5045691;28;20039;-59
2023/04/09 03:44:41;;;;;;;39.65;25.52;;;;;;;9.64;100.00;102574.81;5044059;28;20021;-64
2023/04/09 03:47:07;;;;;;;41.55;26.70;;;;;;;9.70;100.00;102574.81;5046153;28;20124;-66
2023/04/09 03:49:34;;;;;;;39.35;25.92;;;;;;;9.70;100.00;102577.44;5046468;28;20100;-65
2023/04/09 03:52:00;;;;;;;42.10;24.70;;;;;;;9.64;100.00;102570.44;5044367;28;20044;-64
2023/04/09 03:54:28;;;;;;;37.30;24.88;;;;;;;9.66;100.00;102575.72;5046137;28;20535;-62
2023/04/09 03:56:55;;;;;;;41.17;25.33;;;;;;;9.63;100.00;102565.19;5027782;28;20025;-64
2023/04/09 03:59:20;;;;;;;40.15;24.80;;;;;;;9.67;100.00;102569.56;5043888;28;20660;-64
2023/04/09 04:01:45;;;;;;;37.53;25.27;;;;;;;9.66;100.00;102570.44;5046367;28;20041;-64
2023/04/09 04:04:11;;;;;;;41.70;26.58;;;;;;;9.65;100.00;102576.56;5045806;28;20017;-64
2023/04/09 04:06:36;;;;;;;42.78;27.17;;;;;;;9.69;100.00;102580.97;5044413;28;20024;-64
2023/04/09 04:09:01;;;;;;;44.05;26.13;;;;;;;9.66;100.00;102575.72;5045338;28;20025;-63
2023/04/09 04:11:27;;;;;;;41.85;25.52;;;;;;;9.68;100.00;102573.94;5046314;28;20083;-64
2023/04/09 04:13:54;;;;;;;41.42;25.73;;;;;;;9.68;100.00;102568.66;5025991;28;20033;-65
2023/04/09 04:16:19;;;;;;;45.58;26.27;;;;;;;9.68;100.00;102569.56;5046253;28;20021;-64
2023/04/09 04:18:45;;;;;;;40.92;25.90;;;;;;;9.72;100.00;102570.41;5045857;28;20064;-61
2023/04/09 04:21:14;;;;;;;43.03;27.00;;;;;;;9.67;100.00;102569.56;5044022;28;20075;-63
2023/04/09 04:23:39;;;;;;;40.15;25.58;;;;;;;9.61;100.00;102568.66;5027564;28;20070;-64
2023/04/09 04:26:09;;;;;;;40.90;24.88;;;;;;;9.67;100.00;102562.53;5046224;28;20479;-63
2023/04/09 04:28:36;;;;;;;38.55;25.73;;;;;;;9.79;100.00;102564.28;5044731;28;20029;-65
2023/04/09 04:31:01;;;;;;;39.85;25.17;;;;;;;9.78;100.00;102564.28;5046196;28;20017;-61
2023/04/09 04:33:27;;;;;;;40.08;24.73;;;;;;;9.72;100.00;102563.38;5044740;28;20033;-63
2023/04/09 04:35:52;;;;;;;41.70;26.88;;;;;;;9.73;100.00;102566.91;5046394;28;20464;-64
2023/04/09 04:38:17;;;;;;;39.92;25.15;;;;;;;9.81;100.00;102562.50;5045355;28;20506;-66
2023/04/09 04:40:43;;;;;;;39.05;25.50;;;;;;;9.84;100.00;102566.84;5046523;28;20082;-64
2023/04/09 04:43:08;;;;;;;41.65;26.77;;;;;;;9.79;100.00;102566.91;5047971;28;20035;-63
2023/04/09 04:45:33;;;;;;;39.53;25.33;;;;;;;9.79;100.00;102569.53;5016073;28;20017;-64
2023/04/09 04:47:59;;;;;;;39.30;25.13;;;;;;;9.81;100.00;102570.38;5050574;28;20632;-60
2023/04/09 04:50:24;;;;;;;36.50;23.75;;;;;;;9.79;100.00;102571.28;5049676;28;20032;-63
2023/04/09 04:52:49;;;;;;;36.03;25.23;;;;;;;9.82;100.00;102574.75;5049556;28;20198;-64
2023/04/09 04:55:15;;;;;;;38.38;25.40;;;;;;;9.76;100.00;102568.66;5049528;28;20017;-64
2023/04/09 04:57:40;;;;;;;42.58;25.10;;;;;;;9.72;100.00;102573.91;5049512;28;20120;-62
2023/04/09 05:00:07;;;;;;;35.50;23.88;;;;;;;9.82;100.00;102574.75;5048872;28;20148;-64
2023/04/09 05:02:32;;;;;;;40.65;26.08;;;;;;;9.82;100.00;102577.41;5049947;28;20025;-62
2023/04/09 05:04:58;;;;;;;37.47;25.13;;;;;;;9.74;100.00;102581.81;5049697;28;20039;-65
2023/04/09 05:07:23;;;;;;;39.50;25.98;;;;;;;9.82;100.00;102587.94;5049494;28;20151;-65
2023/04/09 05:09:48;;;;;;;39.38;24.73;;;;;;;9.79;100.00;102592.34;5048793;28;20108;-65
2023/04/09 05:12:16;;;;;;;42.08;26.92;;;;;;;9.80;100.00;102592.34;5048461;28;20104;-62
2023/04/09 05:14:42;;;;;;;39.58;23.75;;;;;;;9.83;100.00;102584.44;5050042;28;20017;-64
2023/04/09 05:17:07;;;;;;;40.50;25.13;;;;;;;9.80;100.00;102584.44;5048954;28;20029;-63
2023/04/09 05:19:32;;;;;;;42.60;24.88;;;;;;;9.81;100.00;102590.59;5048886;28;20055;-64
2023/04/09 05:21:58;;;;;;;38.55;25.45;;;;;;;9.83;100.00;102594.97;5047432;28;20489;-62
2023/04/09 05:24:23;;;;;;;38.25;23.42;;;;;;;9.88;100.00;102589.69;5048227;28;20548;-64
2023/04/09 05:26:48;;;;;;;38.50;24.42;;;;;;;9.92;100.00;102591.44;5048758;28;20053;-64
2023/04/09 05:29:16;;;;;;;38.10;25.20;;;;;;;9.89;100.00;102582.66;5047234;28;20025;-66
2023/04/09 05:31:41;;;;;;;38.10;23.63;;;;;;;9.96;100.00;102589.66;5049609;28;20025;-64
2023/04/09 05:34:07;;;;;;;39.40;25.25;;;;;;;9.98;100.00;102591.41;5045976;28;20511;-61
2023/04/09 05:36:32;;;;;;;38.60;24.05;;;;;;;10.01;100.00;102587.88;5048875;28;20029;-62
2023/04/09 05:38:57;;;;;;;39.45;24.58;;;;;;;9.92;100.00;102587.91;5048773;28;20031;-64
2023/04/09 05:41:23;;;;;;;36.78;25.25;;;;;;;9.96;100.00;102585.25;5048174;28;20035;-64
2023/04/09 05:43:48;;;;;;;38.33;23.73;;;;;;;9.92;100.00;102582.63;5048819;28;20031;-64
2023/04/09 05:46:14;;;;;;;37.03;23.77;;;;;;;10.03;100.00;102582.63;5048783;28;20029;-63
2023/04/09 05:48:40;;;;;;;38.50;24.80;;;;;;;9.97;100.00;102588.78;5048939;28;20017;-65
2023/04/09 05:51:05;;;;;;;40.72;25.13;;;;;;;9.98;100.00;102583.50;5048222;28;20107;-61
2023/04/09 05:53:31;;;;;;;39.92;24.77;;;;;;;10.07;100.00;102584.34;5047713;28;20299;-62
2023/04/09 05:55:56;;;;;;;36.40;24.15;;;;;;;10.05;100.00;102584.34;5048716;28;20017;-63
2023/04/09 05:58:21;;;;;;;40.33;24.40;;;;;;;10.08;100.00;102592.25;5048170;28;20057;-64
2023/04/09 06:00:47;;;;;;;38.95;24.27;;;;;;;10.01;100.00;102593.16;5048745;28;20634;-64
2023/04/09 06:03:12;;;;;;;39.85;23.95;;;;;;;10.04;100.00;102598.41;5048315;28;20619;-63
2023/04/09 06:05:37;;;;;;;38.50;25.17;;;;;;;10.05;100.00;102588.78;5048113;28;20033;-64
2023/04/09 06:08:03;;;;;;;36.60;24.98;;;;;;;10.13;100.00;102593.97;5044085;28;20027;-63
2023/04/09 06:10:31;;;;;;;40.35;25.33;;;;;;;10.07;100.00;102598.41;5048964;28;20048;-63
2023/04/09 06:12:56;;;;;;;38.88;24.77;;;;;;;10.17;100.00;102587.84;5043006;28;20026;-62
2023/04/09 06:15:21;;;;;;;37.85;24.48;;;;;;;10.13;100.00;102596.63;5040206;28;20025;-65
2023/04/09 06:17:47;;;;;;;36.67;23.60;;;;;;;9.96;100.00;102595.81;5048449;28;20032;-65
2023/04/09 06:20:12;;;;;;;39.35;24.27;;;;;;;9.99;100.00;102585.25;5048425;28;20021;-66
2023/04/09 06:22:37;;;;;;;40.85;24.98;;;;;;;10.04;100.00;102581.72;5047441;28;20027;-63
2023/04/09 06:25:03;;;;;;;35.92;24.33;;;;;;;10.09;100.00;102588.72;5048358;28;20522;-65
2023/04/09 06:27:28;;;;;;;36.33;23.65;;;;;;;10.11;100.00;102594.00;5029998;28;20514;-61
2023/04/09 06:29:54;;;;;;;38.67;23.85;;;;;;;10.08;100.00;102592.25;5048309;28;20111;-63
2023/04/09 06:32:19;;;;;;;40.47;24.85;;;;;;;10.05;100.00;102600.16;5047692;28;20029;-64
2023/04/09 06:34:45;;;;;;;38.88;24.50;;;;;;;10.01;100.00;102602.81;5046814;28;20160;-65
2023/04/09 06:37:10;;;;;;;38.35;24.23;;;;;;;10.01;100.00;102611.59;5047234;28;20367;-64
2023/04/09 06:39:35;;;;;;;39.28;25.88;;;;;;;10.02;100.00;102612.47;5046264;28;20029;-64
2023/04/09 06:42:02;;;;;;;42.38;25.05;;;;;;;10.08;100.00;102607.16;5046450;28;20241;-63
2023/04/09 06:44:29;;;;;;;43.17;25.02;;;;;;;10.15;100.00;102605.41;5047310;28;20483;-64
2023/04/09 06:46:54;;;;;;;38.67;24.75;;;;;;;10.29;100.00;102614.13;5046959;28;20135;-64
2023/04/09 06:49:19;;;;;;;40.30;26.02;;;;;;;10.20;100.00;102604.50;5028348;28;20359;-64
2023/04/09 06:51:45;;;;;;;42.65;25.13;;;;;;;10.26;100.00;102603.59;5029270;28;20116;-62
2023/04/09 06:54:10;;;;;;;45.35;25.90;;;;;;;10.28;100.00;102609.75;5036852;28;20114;-65
2023/04/09 06:56:36;;;;;;;45.05;27.15;;;;;;;10.26;100.00;102608.84;5046330;28;20032;-63
2023/04/09 06:59:01;;;;;;;56.53;29.55;;;;;;;10.34;100.00;102598.28;5046829;28;20528;-62
2023/04/09 07:01:26;;;;;;;56.50;29.30;;;;;;;10.41;100.00;102601.78;5047317;28;20103;-62
2023/04/09 07:03:52;;;;;;;61.42;31.90;;;;;;;10.34;100.00;102609.72;5046081;28;20067;-65
2023/04/09 07:06:17;;;;;;;51.67;29.70;;;;;;;10.38;100.00;102607.06;5046783;28;20057;-64
2023/04/09 07:08:42;;;;;;;52.08;28.92;;;;;;;10.41;100.00;102602.66;5046015;28;20227;-65
2023/04/09 07:11:08;;;;;;;57.47;30.83;;;;;;;10.33;100.00;102605.31;5045759;28;20067;-61
2023/04/09 07:13:33;;;;;;;68.60;33.25;;;;;;;10.40;100.00;102600.91;5046367;28;20031;-64
2023/04/09 07:15:59;;;;;;;66.32;35.10;;;;;;;10.43;100.00;102606.16;5047103;28;20025;-65
2023/04/09 07:18:24;;;;;;;67.18;34.95;;;;;;;10.43;100.00;102608.78;5045988;28;20009;-63
2023/04/09 07:20:51;;;;;;;70.70;35.92;;;;;;;10.45;100.00;102603.53;5028522;28;20060;-62
2023/04/09 07:23:16;;;;;;;74.57;38.03;;;;;;;10.48;100.00;102608.81;5045256;28;20083;-64
2023/04/09 07:25:42;;;;;;;81.07;39.42;;;;;;;10.40;100.00;102611.44;5046219;28;20037;-62
2023/04/09 07:28:08;;;;;;;74.13;36.45;;;;;;;10.45;100.00;102600.88;5045759;28;20040;-64
2023/04/09 07:30:33;;;;;;;72.47;37.63;;;;;;;10.34;100.00;102595.66;5046388;28;20024;-63
2023/04/09 07:32:59;;;;;;;76.47;38.50;;;;;;;10.38;100.00;102596.53;5046673;28;20142;-62
2023/04/09 07:35:24;;;;;;;70.07;36.85;;;;;;;10.41;100.00;102601.78;5045670;28;20017;-62
2023/04/09 07:37:49;;;;;;;79.13;39.25;;;;;;;10.36;100.00;102599.19;5045303;28;20523;-63
2023/04/09 07:40:15;;;;;;;79.65;39.50;;;;;;;10.50;100.00;102607.03;5046198;28;20033;-63
2023/04/09 07:42:41;;;;;;;75.90;38.58;;;;;;;10.41;100.00;102600.00;5045701;28;20046;-65
2023/04/09 07:45:07;;;;;;;74.55;38.35;;;;;;;10.46;100.00;102602.66;5046583;28;20021;-63
2023/04/09 07:47:32;;;;;;;76.60;40.65;;;;;;;10.47;100.00;102601.78;5047452;28;20101;-62
2023/04/09 07:49:57;;;;;;;75.70;39.95;;;;;;;10.60;100.00;102602.59;5047164;28;20025;-62
2023/04/09 07:52:23;;;;;;;73.28;38.92;;;;;;;10.58;100.00;102617.53;5043745;28;20025;-62
2023/04/09 07:54:48;;;;;;;72.50;38.13;;;;;;;10.64;100.00;102609.59;5044721;28;20479;-61
2023/04/09 07:57:14;;;;;;;80.82;37.22;;;;;;;10.52;100.00;102610.53;5045742;28;20033;-63
2023/04/09 07:59:39;;;;;;;81.05;39.22;;;;;;;10.61;100.00;102606.97;5026959;28;20032;-64
2023/04/09 08:02:04;;;;;;;76.07;37.13;;;;;;;10.61;100.00;102610.50;5046168;28;20094;-65
2023/04/09 08:04:30;;;;;;;77.45;38.55;;;;;;;10.73;100.00;102614.81;5044532;28;20108;-64
2023/04/09 08:06:55;;;;;;;74.85;38.25;;;;;;;10.83;100.00;102613.00;5045220;28;20095;-63
2023/04/09 08:09:21;;;;;;;81.22;40.45;;;;;;;10.69;100.00;102606.94;5042823;28;20040;-63
2023/04/09 08:11:48;;;;;;;79.05;40.97;;;;;;;10.63;100.00;102604.34;5037066;28;20479;-64
2023/04/09 08:14:14;;;;;;;82.18;41.00;;;;;;;10.67;100.00;102599.03;5026959;28;20071;-63
2023/04/09 08:16:41;;;;;;;78.38;39.38;;;;;;;10.69;100.00;102606.94;5039389;28;20063;-63
2023/04/09 08:19:07;;;;;;;73.00;40.38;;;;;;;10.67;100.00;102604.31;5042814;28;20032;-58
2023/04/09 08:21:32;;;;;;;77.80;41.00;;;;;;;10.60;100.00;102606.09;5038806;28;20028;-63
2023/04/09 08:24:03;;;;;;;77.40;40.47;;;;;;;10.74;100.00;102602.50;5015748;28;20041;-62
2023/04/09 08:26:29;;;;;;;78.93;40.63;;;;;;;10.82;100.00;102608.63;5045631;28;20055;-63
2023/04/09 08:28:54;;;;;;;74.68;39.97;;;;;;;10.70;100.00;102614.84;5037767;28;20014;-64
2023/04/09 08:31:19;;;;;;;72.53;40.05;;;;;;;10.78;100.00;102606.88;5038883;28;20123;-65
2023/04/09 08:33:45;;;;;;;74.15;39.65;;;;;;;10.79;100.00;102611.28;5041634;28;20038;-65
2023/04/09 08:36:11;;;;;;;75.88;39.53;;;;;;;10.87;100.00;102606.81;5030164;28;20515;-63
2023/04/09 08:38:36;;;;;;;80.72;41.45;;;;;;;10.90;100.00;102612.97;5035488;28;20026;-64
2023/04/09 08:41:02;;;;;;;69.15;38.20;;;;;;;10.78;100.00;102613.91;5042848;28;20075;-64
2023/04/09 08:43:27;;;;;;;70.07;37.97;;;;;;;10.56;100.00;102622.81;5030331;28;21381;-63
2023/04/09 08:45:56;;;;;;;70.43;38.17;;;;;;;10.70;100.00;102620.13;5027495;28;20571;-64
2023/04/09 08:48:22;;;;;;;71.25;38.45;;;;;;;10.76;100.00;102627.09;5028436;28;20094;-65
2023/04/09 08:50:48;;;;;;;66.90;38.20;;;;;;;10.78;100.00;102632.38;5040864;28;20028;-62
2023/04/09 08:53:14;;;;;;;67.60;37.53;;;;;;;10.84;100.00;102627.06;5035536;28;20124;-64
2023/04/09 08:55:39;;;;;;;66.00;37.28;;;;;;;10.90;100.00;102620.88;5028128;28;20028;-64
2023/04/09 08:58:09;;;;;;;73.28;39.53;;;;;;;10.74;100.00;102618.31;5027404;28;20032;-63
2023/04/09 09:00:35;;;;;;;70.55;39.75;;;;;;;10.81;100.00;102614.75;5044402;28;20040;-63
2023/04/09 09:03:02;;;;;;;68.95;39.55;;;;;;;10.90;100.00;102607.69;5039360;28;20032;-63
2023/04/09 09:05:35;;;;;;;69.60;38.15;;;;;;;11.00;100.00;102617.28;5034203;28;20032;-64
2023/04/09 09:08:00;;;;;;;68.28;39.13;;;;;;;10.82;100.00;102613.88;5038269;28;20139;-66
2023/04/09 09:10:39;;;;;;;64.47;37.90;;;;;;;10.92;100.00;102613.81;5032651;28;20544;-59
2023/04/09 09:13:24;;;;;;;67.95;39.53;;;;;;;10.92;100.00;102616.44;5043088;28;20148;-66
2023/04/09 09:15:55;;;;;;;66.82;37.60;;;;;;;10.97;100.00;102627.84;5041513;28;20030;-64
2023/04/09 09:18:37;;;;;;;70.38;37.10;;;;;;;11.07;100.00;102616.34;5038154;28;20672;-63
2023/04/09 09:21:12;;;;;;;65.40;38.63;;;;;;;10.97;100.00;102617.31;5023084;28;20075;-63
2023/04/09 09:23:37;;;;;;;67.40;37.30;;;;;;;10.98;100.00;102622.56;5039324;28;21420;-64
2023/04/09 09:26:16;;;;;;;63.53;37.67;;;;;;;11.03;100.00;102625.19;5034604;28;20029;-64
2023/04/09 09:28:42;;;;;;;;;;;;;;;11.04;100.00;102619.00;5037454;28;20021;-63
2023/04/09 09:31:11;;;;;;;64.75;36.00;;;;;;;11.10;100.00;102623.34;5039556;28;19920;-65
2023/04/09 09:33:37;;;;;;;60.88;34.65;;;;;;;11.18;100.00;102616.28;5044841;28;20052;-66
2023/04/09 09:36:03;;;;;;;60.95;34.60;;;;;;;11.48;100.00;102608.09;5047013;28;20468;-64
2023/04/09 09:38:29;;;;;;;59.60;35.00;;;;;;;11.42;100.00;102601.13;5041033;28;20032;-64
2023/04/09 09:40:54;;;;;;;59.80;35.33;;;;;;;11.70;100.00;102597.31;5048009;28;20101;-62
2023/04/09 09:43:20;;;;;;;61.78;37.70;;;;;;;12.08;100.00;102606.63;5036610;28;20139;-64
2023/04/09 09:45:46;;;;;;;62.22;36.85;;;;;;;11.98;100.00;102602.31;5044059;28;20051;-65
2023/04/09 09:48:11;;;;;;;61.33;36.45;;;;;;;12.25;100.00;102595.84;5040898;28;20024;-64
2023/04/09 09:50:38;;;;;;;57.53;35.35;;;;;;;12.35;100.00;102593.97;5035837;28;20023;-62
2023/04/09 09:53:05;;;;;;;63.00;37.42;;;;;;;12.38;100.00;102585.13;5036343;28;20017;-65
2023/04/09 09:55:38;;;;;;;61.20;37.08;;;;;;;12.39;100.00;102589.50;5037171;28;20075;-64
2023/04/09 09:58:16;;;;;;;56.35;34.95;;;;;;;13.10;100.00;102584.06;5046969;28;20410;-65
2023/04/09 10:00:43;;;;;;;58.60;35.80;;;;;;;12.73;100.00;102575.78;5018343;28;20471;-66
2023/04/09 10:03:16;;;;;;;55.67;35.15;;;;;;;12.79;100.00;102574.81;5041605;28;20037;-65
2023/04/09 10:05:42;;;;;;;57.95;35.78;;;;;;;12.85;100.00;102573.84;5011426;28;20021;-65
2023/04/09 10:08:08;;;;;;;57.97;36.13;;;;;;;13.02;100.00;102571.81;5017601;28;20080;-63
2023/04/09 10:10:34;;;;;;;51.28;33.42;;;;;;;13.00;100.00;102564.78;5040672;28;20235;-65
2023/04/09 10:12:59;;;;;;;54.33;32.65;;;;;;;13.18;100.00;102562.75;5026563;28;20447;-62
2023/04/09 10:15:27;;;;;;;58.22;33.33;;;;;;;12.92;100.00;102569.34;5029621;28;20061;-63
2023/04/09 10:17:53;;;;;;;50.88;32.20;;;;;;;13.19;100.00;102551.25;5045574;28;20025;-59
2023/04/09 10:20:27;;;;;;;47.72;31.02;;;;;;;13.45;100.00;102548.13;5046128;28;20342;-60
2023/04/09 10:22:53;;;;;;;53.22;31.48;;;;;;;13.87;100.00;102550.00;5037846;28;20464;-61
2023/04/09 10:25:19;;;;;;;52.03;32.35;;;;;;;13.94;100.00;102549.88;5026740;28;20141;-62
2023/04/09 10:27:47;;;;;;;51.67;31.67;;;;;;;14.05;100.00;102541.72;5008767;28;20017;-62
2023/04/09 10:30:32;;;;;;;51.50;32.20;;;;;;;14.25;100.00;102543.94;5020925;28;20120;-62
2023/04/09 10:33:25;;;;;;;48.15;30.48;;;;;;;14.38;99.98;102534.78;5047280;28;20449;-60
2023/04/09 10:35:50;;;;;;;49.50;29.13;;;;;;;14.29;97.49;102540.28;5032846;28;21053;-61
2023/04/09 10:38:16;;;;;;;51.35;31.80;;;;;;;14.19;97.29;102544.06;5026405;28;20519;-60
2023/04/09 10:40:46;;;;;;;48.47;31.65;;;;;;;14.13;99.56;102535.34;5026871;28;20511;-59
2023/04/09 10:43:13;;;;;;;48.85;30.25;;;;;;;14.30;100.00;102539.38;5030354;28;20057;-59
2023/04/09 10:45:40;;;;;;;46.53;29.50;;;;;;;14.71;96.23;102539.31;5028284;28;20103;-60
2023/04/09 10:48:11;;;;;;;45.83;29.98;;;;;;;14.33;96.74;102534.00;5027301;28;20021;-60
2023/04/09 10:50:37;;;;;;;45.22;30.35;;;;;;;14.36;96.34;102520.69;5043830;28;20056;-60
2023/04/09 10:53:03;;;;;;;46.85;29.80;;;;;;;14.36;97.50;102528.63;5045674;28;20394;-59
2023/04/09 10:55:30;;;;;;;43.13;28.27;;;;;;;14.56;97.49;102524.66;5043672;28;20021;-60
2023/04/09 10:57:55;;;;;;;44.90;29.35;;;;;;;14.64;99.63;102519.16;5046505;28;20053;-60
2023/04/09 11:00:20;;;;;;;47.55;29.77;;;;;;;15.07;96.68;102517.25;5045582;28;20059;-60
2023/04/09 11:03:20;;;;;;;44.47;28.23;;;;;;;15.53;99.01;102520.44;5042950;28;20079;-59
2023/04/09 11:05:51;;;;;;;43.90;28.50;;;;;;;15.50;93.55;102517.84;5045363;28;20109;-59